Dover Air Force Base
KDOV : now visible

Airfield :











YOU CAN JOIN US ON...

 
LOGIN :

Register | Disclaimer

   EN    FR    IT 

 









Legend :    VFR   Marginal VFR   IFR   Intensive IFR   Very Intensive IFR
Visi :
Ceiling :
>= 8 km
>= 3000ft
5 to 8 km
1000 to 3000 ft
1500m to 5 km
500 to 1000 ft
800 to 1500m
200 to 500 ft
< 800m
< 200 ft
Symbols :   Thunderstorms  Fog  Heavy snow  Heavy precipitations  Wind > 20 kt






- Airport Elevation : 24 ft


KDOV - Dover Air Force Base

CURRENT METAR :
  • 152357Z 12005KT 10SM SCT044 SCT055 BKN140 09/08 A2978 RMK AO2A SLP088 T00850079 10114 20082 55007 $

EXPIRED METARs :
  • 152256Z 11010KT 10SM FEW180 08/08 A2976 RMK AO2A SLP081 T00820079 $
  • 152156Z 10009KT 10SM BKN050 BKN060 08/08 A2978 RMK AO2A SLP088 T00830082 $

TAF TAF KDOV
Valid from the 15 at 16:00 until the 16 at 22:00 UTC


151600Z 1516/1622 12012KT 9999 FEW015 SCT150 QNH2981INS
BECMG 1520/1521 14009KT 9999 SCT015 BKN100 510023 QNH2978INS
BECMG 1601/1602 17009KT 9999 SCT010 OVC020 510023 QNH2977INS
BECMG 1602/1603 20006KT 8000 -RA SCT010 OVC020 650207 510023 QNH2976INS
BECMG 1603/1604 23009KT 4800 RA BR BKN010 OVC020 650207 510023 QNH2967INS
TEMPO 1604/1606 20009KT 1600 +RA BR OVC006
BECMG 1606/1607 13009KT 4800 BR BKN010 OVC020 510013 QNH2957INS
BECMG 1610/1611 24012KT 6000 BR OVC020 QNH2957INS
BECMG 1611/1612 27012KT 9999 NSW SCT020 BKN040 QNH2950INS
BECMG 1618/1619 30012G18KT 9999 SCT050 BKN090 QNH2950INS TX11/1520Z TN03/1611Z
KZDC FIR / North America



MET'MAP, your aeronautical weather chart ! - Copyright ORBIFLY December 2007 - Disclaimer

ORBIFLY MET'MAP TEAM :

Programming & Development : Alexandra Zaïnal
Concept & original design : Baudouin d'Aumeries
Assistance for programming : Marc-Olivier Méhu
Technical & hardware support : Manuel Goepfert

Contact : metmap@orbifly.com




SOURCES & CREDITS :

   NOAA       Earth
Advisory